Terminal Aerodrome Forecast
Issued by NWS New Orleans/Baton Rouge, LA

Home | Current Version | Previous Version | Text Only | Print | Product List | Glossary On
Versions: 1 2 3 4 5 6 7 8 9 10 11 12 13 14
000
FTUS44 KLIX 042327
TAFBTR
TAF
KBTR 042327Z 0500/0524 23005KT P6SM SCT020 BKN250
     FM050100 19005KT P6SM SCT110 BKN250
     FM050600 23004KT P6SM SCT250
      TEMPO 0511/0513 4SM BR SCT008
     FM051400 30005KT P6SM SCT025
     FM051700 27006KT P6SM VCSH SCT035 BKN250=

USA.gov is the U.S. government's official web portal to all federal, state and local government web resources and services.